LIPX/VRN METAR and TAF weather

Enter ICAO airport designator
Station Type Date Time Source
LIPX METAR 2020/06/03 16:20 UTC NOAA

LIPX 031620Z 22016KT 9999 FEW030 SCT040TCU 27/14 Q1004


Station Type Date Time Source
LIPX Decoded METAR 2020/06/03 16:20 UTC NOAA

Verona / Villafranca, Italy (LIPX) 45-23N 010-52E 68M
Jun 03, 2020 - 12:20 PM EDT / 2020.06.03 1620 UTC
Wind: from the SW (220 degrees) at 18 MPH (16 KT):0
Visibility: greater than 7 mile(s):0
Sky conditions: partly cloudy
Weather: Towering cumulus clouds observed
Temperature: 80 F (27 C)
Dew Point: 57 F (14 C)
Relative Humidity: 44%
Pressure (altimeter): 29.65 in. Hg (1004 hPa)
ob: LIPX 031620Z 22016KT 9999 FEW030 SCT040TCU 27/14 Q1004
cycle: 16

Station Type Date Time Source
LIPX TAF 2014/04/22 15:24 UTC NOAA

TAF LIPX 221400Z 2215/2324 VRB05KT 9999 SCT030 SCT070
TEMPO 2215/2218 SCT025CB SCT080 PROB30
TEMPO 2215/2218 TS

Example: see airport list